Time;durP1;ratioP1;P1;durP2;ratioP2;P2;SDS_P1;SDS_P2;PMS_P1;PMS_P2;Temp;Humidity;BMP_temperature;BMP_pressure;BME280_temperature;BME280_humidity;BME280_pressure;Samples;Min_cycle;Max_cycle;Signal;HPM_P1;HPM_P2
2022/10/28 00:00:12;;;;;;;5.78;2.20;;;;;;;20.65;55.13;97874.47;4850610;28;20215;-73
2022/10/28 00:02:39;;;;;;;7.97;2.28;;;;;;;20.69;54.46;97875.44;4850108;28;20203;-73
2022/10/28 00:05:05;;;;;;;8.15;2.47;;;;;;;20.91;54.46;97876.63;4867061;28;20239;-73
2022/10/28 00:07:31;;;;;;;5.18;2.90;;;;;;;20.94;54.37;97873.41;4851950;29;20165;-73
2022/10/28 00:09:56;;;;;;;4.20;1.98;;;;;;;20.93;54.12;97875.25;4851371;29;20279;-73
2022/10/28 00:12:21;;;;;;;4.72;2.30;;;;;;;20.87;54.42;97870.34;4867601;29;20207;-73
2022/10/28 00:14:47;;;;;;;6.63;2.45;;;;;;;20.87;54.80;97867.69;4855644;29;20207;-74
2022/10/28 00:17:12;;;;;;;6.65;2.25;;;;;;;20.84;54.80;97873.59;4866528;28;20697;-74
2022/10/28 00:19:37;;;;;;;7.32;2.65;;;;;;;20.84;54.56;97877.03;4866206;29;20650;-73
2022/10/28 00:22:03;;;;;;;4.88;2.53;;;;;;;20.71;55.15;97868.00;4867525;28;20199;-73
2022/10/28 00:24:28;;;;;;;5.25;2.05;;;;;;;20.77;54.83;97871.34;4867117;28;20282;-74
2022/10/28 00:26:53;;;;;;;7.53;2.33;;;;;;;20.69;55.14;97870.16;4868310;29;20580;-74
2022/10/28 00:29:19;;;;;;;7.75;2.45;;;;;;;20.66;55.03;97865.44;4867096;29;20625;-73
2022/10/28 00:31:45;;;;;;;8.55;2.22;;;;;;;20.73;54.51;97870.34;4846523;29;20370;-74
2022/10/28 00:34:13;;;;;;;6.00;2.83;;;;;;;20.80;54.54;97868.09;4867300;28;20254;-74
2022/10/28 00:36:43;;;;;;;4.60;2.63;;;;;;;20.79;54.71;97874.47;4851715;29;20288;-73
2022/10/28 00:39:18;;;;;;;6.32;2.45;;;;;;;20.90;54.67;97872.41;4850972;29;20262;-74
2022/10/28 00:41:46;;;;;;;4.15;2.10;;;;;;;20.78;54.80;97878.19;4867788;29;20203;-73
2022/10/28 00:44:49;;;;;;;4.82;2.75;;;;;;;20.83;54.84;97874.66;4878957;28;20711;-74
2022/10/28 00:47:50;;;;;;;9.10;2.20;;;;;;;20.87;54.60;97870.34;4863616;28;20203;-74
2022/10/28 00:50:37;;;;;;;5.55;2.17;;;;;;;20.86;53.96;97863.50;4862582;29;20183;-74
2022/10/28 00:53:08;;;;;;;4.53;2.03;;;;;;;20.89;53.98;97869.00;4869186;28;20196;-74
2022/10/28 00:55:35;;;;;;;4.93;2.42;;;;;;;20.77;54.40;97856.25;4868119;29;20320;-74
2022/10/28 00:58:01;;;;;;;6.28;2.50;;;;;;;20.79;54.58;97863.13;4865869;29;20709;-74
2022/10/28 01:00:27;;;;;;;5.68;2.50;;;;;;;20.81;54.66;97866.25;4859747;28;20238;-74
2022/10/28 01:02:52;;;;;;;8.07;2.67;;;;;;;20.82;54.52;97860.66;4849495;29;20289;-74
2022/10/28 01:05:24;;;;;;;6.53;2.63;;;;;;;20.91;54.14;97858.09;4866148;29;20255;-74
2022/10/28 01:07:53;;;;;;;7.45;2.90;;;;;;;20.98;54.01;97861.13;4867139;29;20286;-74
2022/10/28 01:10:21;;;;;;;8.50;2.55;;;;;;;20.98;54.21;97855.84;4850557;29;20334;-74
2022/10/28 01:13:07;;;;;;;5.82;2.30;;;;;;;21.13;54.10;97855.53;4851383;29;20210;-74
2022/10/28 01:15:57;;;;;;;6.47;2.28;;;;;;;21.10;53.74;97864.06;4851522;29;20143;-73
2022/10/28 01:18:29;;;;;;;5.28;2.22;;;;;;;20.95;53.91;97861.72;4866162;28;20548;-74
2022/10/28 01:21:19;;;;;;;8.73;2.85;;;;;;;21.16;52.51;97853.38;4867470;29;20199;-74
2022/10/28 01:23:47;;;;;;;8.40;3.08;;;;;;;21.03;54.39;97857.63;4866848;29;20693;-74
2022/10/28 01:26:34;;;;;;;6.25;2.47;;;;;;;21.08;54.03;97849.56;4851079;29;20172;-74
2022/10/28 01:29:30;;;;;;;6.30;2.17;;;;;;;21.21;53.69;97850.63;4867028;29;20722;-74
2022/10/28 01:31:56;;;;;;;6.28;2.67;;;;;;;21.12;53.46;97846.00;4882483;28;20290;-74
2022/10/28 01:35:10;;;;;;;5.25;2.28;;;;;;;21.36;53.09;97841.56;4866499;28;20712;-74
2022/10/28 01:37:41;;;;;;;3.63;1.73;;;;;;;21.35;52.57;97838.13;4863219;28;20219;-74
2022/10/28 01:40:16;;;;;;;8.27;2.10;;;;;;;21.51;52.01;97836.75;4868143;29;20326;-74
2022/10/28 01:43:05;;;;;;;6.35;1.98;;;;;;;21.70;50.87;97839.22;4868407;28;20264;-74
2022/10/28 01:45:35;;;;;;;4.00;1.98;;;;;;;21.76;49.54;97834.56;4864258;28;20210;-74
2022/10/28 01:48:04;;;;;;;6.70;1.77;;;;;;;21.90;50.05;97823.94;4851235;29;20627;-74
2022/10/28 01:50:40;;;;;;;4.97;1.98;;;;;;;21.95;50.21;97818.50;4866381;28;20219;-74
2022/10/28 01:53:10;;;;;;;4.68;2.58;;;;;;;22.02;47.96;97810.09;4866411;29;20164;-74
2022/10/28 01:55:41;;;;;;;6.95;2.47;;;;;;;22.07;48.81;97805.47;4866363;29;20726;-74
2022/10/28 01:58:08;;;;;;;8.25;2.08;;;;;;;22.13;49.29;97797.38;4850052;29;20140;-74
2022/10/28 02:00:34;;;;;;;4.82;2.20;;;;;;;22.24;48.39;97794.16;4863056;29;20653;-74
2022/10/28 02:03:00;;;;;;;5.22;2.75;;;;;;;22.26;48.11;97792.00;4866765;29;20180;-74
2022/10/28 02:05:43;;;;;;;7.28;1.88;;;;;;;22.44;47.99;97790.19;4850664;29;20293;-74
2022/10/28 02:08:17;;;;;;;7.18;2.22;;;;;;;22.37;48.57;97786.44;4868500;29;20619;-74
2022/10/28 02:11:04;;;;;;;7.00;2.70;;;;;;;22.46;48.12;97784.59;4866763;29;20203;-74
2022/10/28 02:14:08;;;;;;;6.70;2.47;;;;;;;22.52;47.90;97783.38;4866938;28;20504;-74
2022/10/28 02:16:49;;;;;;;5.82;2.25;;;;;;;22.54;47.37;97775.09;4863204;29;20306;-74
2022/10/28 02:19:41;;;;;;;5.28;1.88;;;;;;;22.56;47.40;97767.63;4866482;29;20305;-74
2022/10/28 02:22:14;;;;;;;8.32;2.60;;;;;;;22.60;47.89;97760.59;4865651;28;20303;-74
2022/10/28 02:25:03;;;;;;;7.85;2.25;;;;;;;22.61;47.80;97768.25;4892709;28;20712;-74
2022/10/28 02:27:53;;;;;;;5.82;1.77;;;;;;;22.68;47.44;97764.38;4881900;28;20281;-74
2022/10/28 02:30:33;;;;;;;9.27;2.60;;;;;;;22.69;47.20;97761.41;4865444;29;20188;-74
2022/10/28 02:33:01;;;;;;;7.93;2.22;;;;;;;22.56;47.56;97763.09;4882728;28;20622;-74
2022/10/28 02:35:37;;;;;;;5.35;2.60;;;;;;;22.74;46.78;97752.50;4881275;28;20171;-74
2022/10/28 02:38:08;;;;;;;6.20;2.30;;;;;;;22.78;46.43;97748.94;4865964;29;20203;-74
2022/10/28 02:40:33;;;;;;;7.03;2.10;;;;;;;22.83;46.44;97755.97;4834966;29;20243;-74
2022/10/28 02:43:02;;;;;;;5.35;2.10;;;;;;;22.81;46.39;97747.53;4850964;29;20278;-74
2022/10/28 02:45:30;;;;;;;4.68;1.90;;;;;;;22.79;46.09;97744.38;4867976;28;20578;-74
2022/10/28 02:47:58;;;;;;;4.90;1.60;;;;;;;22.78;46.43;97745.50;4852357;29;20263;-74
2022/10/28 02:50:29;;;;;;;8.80;2.67;;;;;;;22.80;45.91;97752.03;4854033;29;20184;-74
2022/10/28 02:52:58;;;;;;;8.07;2.17;;;;;;;22.91;45.70;97752.56;4870449;29;20207;-73
2022/10/28 02:55:24;;;;;;;6.43;1.83;;;;;;;22.85;46.12;97753.78;4870103;29;20199;-74
2022/10/28 02:57:49;;;;;;;6.18;2.50;;;;;;;22.77;46.12;97757.19;4870324;28;20238;-74
2022/10/28 03:00:21;;;;;;;5.90;2.10;;;;;;;22.86;47.24;97752.69;4849370;29;20297;-74
2022/10/28 03:02:47;;;;;;;8.82;2.55;;;;;;;22.54;47.87;97746.69;4853582;29;20356;-73
2022/10/28 03:05:13;;;;;;;6.35;2.33;;;;;;;22.46;48.27;97747.44;4869541;29;20283;-74
2022/10/28 03:07:38;;;;;;;5.38;2.30;;;;;;;22.43;47.87;97745.41;4869701;28;20362;-74
2022/10/28 03:10:04;;;;;;;6.93;2.38;;;;;;;22.43;47.59;97745.41;4870867;29;20279;-74
2022/10/28 03:12:30;;;;;;;8.77;2.08;;;;;;;22.41;47.33;97739.63;4870102;29;20161;-74
2022/10/28 03:14:55;;;;;;;6.35;2.38;;;;;;;22.41;47.64;97739.63;4869478;28;20157;-73
2022/10/28 03:17:20;;;;;;;10.43;2.65;;;;;;;22.41;48.15;97744.94;4868448;28;20196;-73
2022/10/28 03:19:46;;;;;;;4.85;1.77;;;;;;;22.36;47.80;97737.91;4871139;28;20199;-73
2022/10/28 03:22:11;;;;;;;8.57;2.17;;;;;;;22.31;49.12;97737.25;4869294;29;20207;-74
2022/10/28 03:24:36;;;;;;;8.05;2.60;;;;;;;22.18;49.50;97739.69;4868919;29;20215;-74
2022/10/28 03:27:02;;;;;;;10.20;2.33;;;;;;;22.19;49.53;97741.25;4868704;29;20215;-73
2022/10/28 03:29:28;;;;;;;5.45;2.13;;;;;;;22.07;49.63;97738.38;4868857;29;20195;-74
2022/10/28 03:31:53;;;;;;;6.75;2.72;;;;;;;22.07;49.72;97741.03;4870776;28;20227;-73
2022/10/28 03:34:18;;;;;;;5.15;3.00;;;;;;;22.05;49.56;97737.91;4868961;29;20578;-73
2022/10/28 03:36:44;;;;;;;8.13;2.60;;;;;;;21.94;49.98;97741.91;4868901;29;20211;-74
2022/10/28 03:39:09;;;;;;;6.00;2.20;;;;;;;21.86;49.78;97744.19;4853053;29;20330;-73
2022/10/28 03:41:34;;;;;;;6.63;2.50;;;;;;;21.86;50.04;97746.06;4871315;28;20362;-73
2022/10/28 03:44:00;;;;;;;6.10;2.20;;;;;;;21.72;50.24;97740.84;4869136;28;20199;-73
2022/10/28 03:46:25;;;;;;;6.15;2.08;;;;;;;21.61;50.10;97739.53;4868981;28;20449;-73
2022/10/28 03:48:50;;;;;;;5.18;1.52;;;;;;;21.72;47.66;97735.56;4869972;28;20430;-73
2022/10/28 03:51:16;;;;;;;12.00;2.15;;;;;;;22.04;47.23;97744.31;4868448;28;20633;-73
2022/10/28 03:53:41;;;;;;;6.43;2.08;;;;;;;22.07;46.41;97733.88;4852924;29;20615;-74
2022/10/28 03:56:07;;;;;;;6.90;3.08;;;;;;;22.37;47.07;97744.75;4868180;28;20289;-73
2022/10/28 03:58:32;;;;;;;6.20;2.17;;;;;;;22.33;48.06;97748.31;4868507;29;20219;-73
2022/10/28 04:00:58;;;;;;;6.30;1.98;;;;;;;22.26;47.00;97738.94;4865525;29;20203;-73
2022/10/28 04:03:24;;;;;;;6.10;2.08;;;;;;;22.36;47.11;97745.06;4837706;29;20191;-73
2022/10/28 04:05:49;;;;;;;6.10;2.00;;;;;;;22.18;48.19;97739.69;4883669;28;20636;-73
2022/10/28 04:08:16;;;;;;;9.50;2.78;;;;;;;22.12;47.87;97753.38;4868401;28;20142;-73
2022/10/28 04:10:42;;;;;;;4.25;2.00;;;;;;;21.98;48.51;97758.78;4837892;29;20219;-74
2022/10/28 04:13:07;;;;;;;6.72;2.47;;;;;;;21.89;48.09;97756.06;4883850;28;20187;-73
2022/10/28 04:15:33;;;;;;;6.65;2.15;;;;;;;21.75;48.39;97750.09;4897790;28;20597;-73
2022/10/28 04:17:58;;;;;;;5.32;2.13;;;;;;;21.86;48.15;97754.03;4884375;28;20243;-74
2022/10/28 04:20:25;;;;;;;7.82;2.45;;;;;;;21.81;48.24;97757.59;4868916;29;20718;-73
2022/10/28 04:22:50;;;;;;;5.28;1.90;;;;;;;21.69;47.90;97754.72;4852949;29;20194;-74
2022/10/28 04:25:16;;;;;;;8.13;1.92;;;;;;;21.73;47.46;97747.72;4868506;29;20214;-72
2022/10/28 04:27:43;;;;;;;5.75;1.83;;;;;;;21.94;47.30;97744.56;4865506;29;20637;-73
2022/10/28 04:30:11;;;;;;;7.15;2.10;;;;;;;22.02;46.99;97744.59;4867615;29;20709;-73
2022/10/28 04:32:36;;;;;;;5.78;2.15;;;;;;;22.11;46.80;97743.88;4873031;28;20282;-74
2022/10/28 04:35:02;;;;;;;5.78;1.98;;;;;;;21.95;46.82;97746.13;4853054;29;20203;-73
2022/10/28 04:37:27;;;;;;;5.65;1.90;;;;;;;22.06;47.00;97740.25;4868243;29;20301;-73
2022/10/28 04:39:52;;;;;;;5.95;1.90;;;;;;;22.15;46.25;97742.94;4867975;29;20207;-73
2022/10/28 04:42:18;;;;;;;5.72;1.88;;;;;;;22.18;45.84;97736.25;4868569;29;20352;-74
2022/10/28 04:44:43;;;;;;;10.38;2.63;;;;;;;22.14;45.78;97736.09;4851119;28;20218;-74
2022/10/28 04:47:08;;;;;;;9.48;2.00;;;;;;;22.17;45.55;97730.13;4868948;29;20293;-73
2022/10/28 04:49:34;;;;;;;5.72;1.83;;;;;;;22.33;45.80;97737.72;4865759;29;20171;-73
2022/10/28 04:51:59;;;;;;;5.75;1.65;;;;;;;22.33;45.62;97724.44;4836559;29;20207;-73
2022/10/28 04:54:26;;;;;;;5.97;2.05;;;;;;;22.34;45.98;97726.03;4867787;29;20172;-73
2022/10/28 04:56:53;;;;;;;7.72;2.13;;;;;;;22.43;45.43;97718.88;4837163;29;20262;-74
2022/10/28 04:59:18;;;;;;;10.77;2.65;;;;;;;22.34;45.88;97723.38;4864712;28;20175;-73
2022/10/28 05:01:43;;;;;;;7.95;2.35;;;;;;;22.41;45.11;97715.75;4865255;28;20108;-73
2022/10/28 05:04:09;;;;;;;3.65;2.00;;;;;;;22.35;45.21;97723.06;4850540;29;20195;-73
2022/10/28 05:06:34;;;;;;;6.07;2.13;;;;;;;22.41;45.63;97713.88;4863610;29;20218;-73
2022/10/28 05:08:59;;;;;;;5.45;1.80;;;;;;;22.34;45.03;97718.06;4865394;28;20206;-74
2022/10/28 05:11:25;;;;;;;3.28;1.85;;;;;;;22.35;45.45;97712.47;4882149;28;20238;-74
2022/10/28 05:13:51;;;;;;;4.63;1.83;;;;;;;22.41;45.30;97705.13;4866175;29;20259;-74
2022/10/28 05:16:17;;;;;;;5.90;2.75;;;;;;;22.48;45.19;97712.63;4868429;28;20341;-73
2022/10/28 05:18:42;;;;;;;5.45;1.80;;;;;;;22.41;45.54;97713.88;4865855;28;20286;-73
2022/10/28 05:21:08;;;;;;;7.55;1.90;;;;;;;22.35;45.47;97714.34;4867978;28;20278;-73
2022/10/28 05:23:33;;;;;;;2.20;1.52;;;;;;;22.53;44.78;97713.28;4865763;29;20286;-74
2022/10/28 05:25:58;;;;;;;8.57;1.95;;;;;;;22.47;45.11;97703.13;4881980;28;20198;-74
2022/10/28 05:28:24;;;;;;;5.70;2.33;;;;;;;22.41;45.04;97719.19;4850099;29;20842;-73
2022/10/28 05:30:49;;;;;;;5.07;1.70;;;;;;;22.40;45.05;97719.50;4850233;29;20665;-73
2022/10/28 05:33:14;;;;;;;5.57;1.98;;;;;;;22.36;45.44;97727.31;4887472;28;20211;-74
2022/10/28 05:35:40;;;;;;;6.25;1.88;;;;;;;22.13;44.57;97726.56;4866377;29;20222;-74
2022/10/28 05:38:05;;;;;;;8.07;1.92;;;;;;;22.34;44.82;97724.16;4865599;28;20199;-73
2022/10/28 05:40:32;;;;;;;6.80;2.67;;;;;;;22.38;45.03;97730.41;4849985;29;20351;-74
2022/10/28 05:43:00;;;;;;;4.03;1.70;;;;;;;22.20;45.28;97710.97;4850551;29;20337;-74
2022/10/28 05:45:26;;;;;;;4.75;1.48;;;;;;;22.37;44.83;97712.16;4864857;28;20790;-74
2022/10/28 05:47:51;;;;;;;5.00;1.50;;;;;;;22.28;45.43;97714.78;4863530;28;20347;-73
2022/10/28 05:50:19;;;;;;;3.00;1.63;;;;;;;22.32;45.19;97717.59;4850616;29;20164;-73
2022/10/28 05:52:49;;;;;;;9.15;2.20;;;;;;;22.35;45.35;97720.41;4850586;29;20203;-73
2022/10/28 05:55:18;;;;;;;5.85;1.70;;;;;;;22.29;45.43;97720.88;4866353;29;20211;-74
2022/10/28 05:57:44;;;;;;;5.40;1.95;;;;;;;22.17;45.46;97722.19;4866193;29;20637;-73
2022/10/28 06:00:11;;;;;;;6.18;2.40;;;;;;;22.18;46.47;97725.66;4847638;29;20217;-73
2022/10/28 06:02:36;;;;;;;4.90;2.05;;;;;;;22.09;46.55;97730.91;4866686;29;20626;-73
2022/10/28 06:05:01;;;;;;;7.40;2.47;;;;;;;21.93;46.64;97729.75;4866597;29;20223;-73
2022/10/28 06:07:28;;;;;;;6.25;2.05;;;;;;;21.95;47.15;97727.56;4851940;29;20207;-73
2022/10/28 06:09:53;;;;;;;6.38;2.15;;;;;;;21.77;46.69;97727.47;4866060;29;20768;-73
2022/10/28 06:12:18;;;;;;;6.50;1.88;;;;;;;21.75;47.45;97729.66;4865241;28;20360;-73
2022/10/28 06:14:44;;;;;;;5.70;1.73;;;;;;;21.68;47.73;97731.97;4869075;28;20326;-73
2022/10/28 06:17:09;;;;;;;5.63;1.70;;;;;;;21.62;48.09;97735.81;4866920;29;20299;-73
2022/10/28 06:19:34;;;;;;;6.30;1.83;;;;;;;21.48;47.15;97736.66;4866228;28;20211;-73
2022/10/28 06:22:00;;;;;;;9.52;2.72;;;;;;;21.59;47.47;97736.41;4835533;28;20203;-73
2022/10/28 06:24:25;;;;;;;5.45;1.83;;;;;;;21.53;47.11;97734.97;4847846;29;20293;-73
2022/10/28 06:26:50;;;;;;;5.25;1.45;;;;;;;21.49;46.51;97735.56;4864078;29;20328;-73
2022/10/28 06:29:16;;;;;;;3.15;1.48;;;;;;;21.67;46.89;97730.38;4864828;29;20111;-74
2022/10/28 06:31:41;;;;;;;6.72;1.80;;;;;;;21.67;46.19;97733.03;4850645;29;20181;-74
2022/10/28 06:34:11;;;;;;;6.30;1.80;;;;;;;21.87;46.88;97740.47;4866601;29;20301;-74
2022/10/28 06:36:36;;;;;;;4.25;1.50;;;;;;;21.80;45.66;97742.00;4865651;28;20210;-74
2022/10/28 06:39:02;;;;;;;5.50;2.28;;;;;;;21.97;45.27;97757.19;4865689;29;20247;-73
2022/10/28 06:41:27;;;;;;;9.45;2.65;;;;;;;22.04;45.46;97745.06;4850556;29;20268;-73
2022/10/28 06:43:52;;;;;;;8.02;1.77;;;;;;;22.27;45.16;97758.28;4866304;28;20228;-73
2022/10/28 06:46:18;;;;;;;4.47;1.67;;;;;;;22.36;45.18;97753.03;4864693;28;20147;-73
2022/10/28 06:48:43;;;;;;;4.32;1.45;;;;;;;22.36;45.29;97743.22;4879269;28;20284;-74
2022/10/28 06:51:09;;;;;;;3.67;1.52;;;;;;;22.47;44.72;97753.56;4867644;29;20198;-74
2022/10/28 06:53:34;;;;;;;8.32;1.60;;;;;;;22.28;44.36;97751.13;4850387;29;20799;-73
2022/10/28 06:55:59;;;;;;;6.07;1.80;;;;;;;22.29;45.10;97758.00;4868295;29;20289;-74
2022/10/28 06:58:26;;;;;;;7.22;2.50;;;;;;;22.38;44.27;97756.94;4866034;29;20202;-74
2022/10/28 07:00:51;;;;;;;5.45;1.50;;;;;;;22.36;43.57;97753.84;4875410;28;20432;-73
2022/10/28 07:03:20;;;;;;;6.00;1.90;;;;;;;22.59;45.02;97756.38;4849669;29;20285;-73
2022/10/28 07:05:46;;;;;;;7.25;2.08;;;;;;;22.55;44.25;97758.06;4867540;29;20179;-73
2022/10/28 07:08:11;;;;;;;7.45;2.05;;;;;;;22.57;43.55;97764.66;4865985;29;20630;-73
2022/10/28 07:10:37;;;;;;;6.80;2.75;;;;;;;22.66;44.16;97763.91;4847115;29;20227;-73
2022/10/28 07:13:02;;;;;;;5.55;2.30;;;;;;;22.52;44.18;97766.69;4874754;28;20294;-74
2022/10/28 07:15:28;;;;;;;7.63;1.95;;;;;;;22.61;43.24;97765.59;4864734;28;20315;-73
2022/10/28 07:17:54;;;;;;;5.72;2.20;;;;;;;22.80;44.24;97767.19;4864941;28;20601;-73
2022/10/28 07:20:20;;;;;;;4.95;1.92;;;;;;;22.86;44.28;97775.78;4862366;29;20247;-73
2022/10/28 07:22:45;;;;;;;7.20;1.85;;;;;;;22.75;44.54;97770.78;4849752;29;20286;-74
2022/10/28 07:25:13;;;;;;;4.47;2.47;;;;;;;22.71;44.94;97775.16;4834482;29;20745;-73
2022/10/28 07:27:38;;;;;;;8.85;2.65;;;;;;;22.50;44.34;97777.59;4848942;28;20247;-73
2022/10/28 07:30:04;;;;;;;6.00;1.92;;;;;;;22.74;44.59;97777.19;4865837;29;20172;-74
2022/10/28 07:32:33;;;;;;;5.47;1.80;;;;;;;22.76;44.50;97776.88;4867308;28;20274;-73
2022/10/28 07:34:58;;;;;;;6.88;2.30;;;;;;;22.77;44.84;97783.75;4869381;29;20285;-74
2022/10/28 07:37:23;;;;;;;4.57;1.80;;;;;;;22.79;43.84;97792.19;4868875;29;20314;-73
2022/10/28 07:39:49;;;;;;;6.70;2.10;;;;;;;22.84;43.74;97792.03;4869005;29;20181;-73
2022/10/28 07:42:14;;;;;;;5.30;2.10;;;;;;;22.81;43.82;97787.38;4869153;29;20682;-73
2022/10/28 07:44:39;;;;;;;5.22;1.63;;;;;;;23.03;43.38;97783.00;4869835;28;20720;-74
2022/10/28 07:47:05;;;;;;;5.43;1.88;;;;;;;22.98;42.31;97790.03;4853507;29;20593;-74
2022/10/28 07:49:31;;;;;;;7.03;1.65;;;;;;;23.08;43.20;97786.34;4870353;28;20743;-73
2022/10/28 07:51:56;;;;;;;7.53;2.72;;;;;;;23.13;42.32;97786.19;4870528;29;20251;-74
2022/10/28 07:54:21;;;;;;;6.18;2.40;;;;;;;23.27;42.69;97795.88;4869189;29;20248;-73
2022/10/28 07:56:47;;;;;;;6.15;2.47;;;;;;;23.31;42.91;97783.53;4867613;29;20218;-74
2022/10/28 07:59:12;;;;;;;7.20;2.40;;;;;;;23.21;42.32;97787.28;4884496;28;20713;-74
2022/10/28 08:01:38;;;;;;;5.72;1.50;;;;;;;23.35;41.87;97792.44;4869018;29;20116;-73
2022/10/28 08:04:03;;;;;;;6.13;2.22;;;;;;;23.33;42.30;97790.09;4843762;29;20242;-73
2022/10/28 08:06:28;;;;;;;5.53;2.25;;;;;;;23.40;40.95;97786.97;4852884;29;20200;-73
2022/10/28 08:08:55;;;;;;;4.20;2.10;;;;;;;23.50;41.96;97785.88;4870126;29;20233;-74
2022/10/28 08:11:24;;;;;;;6.15;1.92;;;;;;;23.49;42.35;97790.41;4852499;29;20278;-73
2022/10/28 08:13:50;;;;;;;6.35;1.80;;;;;;;23.42;40.73;97784.00;4885713;28;20165;-73
2022/10/28 08:16:16;;;;;;;8.77;2.05;;;;;;;23.61;41.30;97792.41;4852900;29;20180;-73
2022/10/28 08:18:42;;;;;;;6.35;1.80;;;;;;;23.69;41.34;97791.63;4867105;28;20190;-73
2022/10/28 08:21:09;;;;;;;7.53;2.53;;;;;;;23.65;42.91;97785.41;4868111;29;20680;-73
2022/10/28 08:23:34;;;;;;;7.00;2.85;;;;;;;23.63;41.93;97792.91;4852537;29;20291;-73
2022/10/28 08:26:01;;;;;;;7.65;2.78;;;;;;;23.68;41.12;97790.09;4852598;29;20294;-73
2022/10/28 08:28:26;;;;;;;7.28;2.10;;;;;;;23.69;42.79;97794.28;4851830;29;20214;-73
2022/10/28 08:30:52;;;;;;;7.57;2.00;;;;;;;23.79;40.60;97779.13;4867908;29;20203;-73
2022/10/28 08:33:17;;;;;;;10.43;1.88;;;;;;;23.80;41.21;97784.09;4852750;29;20196;-73
2022/10/28 08:35:43;;;;;;;7.68;2.10;;;;;;;23.72;41.40;97793.66;4870052;29;20297;-73
2022/10/28 08:38:08;;;;;;;9.55;2.38;;;;;;;23.75;41.31;97795.69;4867870;29;20211;-73
2022/10/28 08:40:42;;;;;;;6.65;2.20;;;;;;;23.93;41.12;97790.38;4852505;29;20279;-73
2022/10/28 08:43:20;;;;;;;4.15;2.00;;;;;;;23.92;39.87;97792.25;4852239;29;20276;-73
2022/10/28 08:46:07;;;;;;;5.72;1.98;;;;;;;24.14;40.93;97795.78;4867419;28;20173;-73
2022/10/28 08:48:34;;;;;;;5.90;1.80;;;;;;;24.15;39.73;97791.25;4836070;29;20303;-73
2022/10/28 08:51:20;;;;;;;9.95;1.98;;;;;;;24.43;39.34;97791.63;4868229;29;20307;-73
2022/10/28 08:53:52;;;;;;;5.75;1.80;;;;;;;24.44;40.60;97790.53;4867204;28;20243;-73
2022/10/28 08:56:30;;;;;;;3.92;1.73;;;;;;;24.52;38.52;97783.59;4836416;29;20271;-73
2022/10/28 08:58:59;;;;;;;5.95;2.47;;;;;;;24.58;40.32;97787.66;4869459;29;20262;-73
2022/10/28 09:01:48;;;;;;;6.18;1.77;;;;;;;24.64;40.47;97781.84;4868226;29;20286;-73
2022/10/28 09:04:35;;;;;;;13.70;2.00;;;;;;;24.84;39.38;97787.50;4862553;29;20274;-73
2022/10/28 09:07:01;;;;;;;4.10;1.50;;;;;;;24.65;38.04;97793.25;4852715;29;20195;-73
2022/10/28 09:09:27;;;;;;;5.93;2.13;;;;;;;24.55;38.58;97793.63;4851976;29;20230;-73
2022/10/28 09:11:57;;;;;;;6.55;2.10;;;;;;;24.60;39.53;97799.53;4867823;29;20743;-74
2022/10/28 09:14:58;;;;;;;7.75;1.80;;;;;;;24.85;38.84;97802.41;4868139;28;20290;-73
2022/10/28 09:17:33;;;;;;;6.63;1.88;;;;;;;24.86;39.18;97799.41;4867898;28;20203;-73
2022/10/28 09:20:16;;;;;;;9.32;1.98;;;;;;;24.90;39.47;97799.56;4868023;29;20356;-73
2022/10/28 09:22:58;;;;;;;4.40;1.60;;;;;;;24.91;39.83;97798.44;4867743;29;20701;-73
2022/10/28 09:26:19;;;;;;;7.18;1.92;;;;;;;25.11;38.73;97791.56;4867927;29;20660;-73
2022/10/28 09:28:59;;;;;;;10.10;2.40;;;;;;;24.96;38.27;97802.81;4846420;29;20704;-73
2022/10/28 09:31:31;;;;;;;7.28;2.10;;;;;;;25.29;37.11;97794.13;4846965;29;20285;-73
2022/10/28 09:34:08;;;;;;;9.05;3.13;;;;;;;25.56;37.74;97803.47;4846643;29;20345;-73
2022/10/28 09:36:37;;;;;;;5.72;1.85;;;;;;;25.58;37.64;97802.06;4846732;29;20653;-74
2022/10/28 09:39:04;;;;;;;3.75;1.40;;;;;;;25.66;37.78;97796.97;4815134;29;20703;-74
2022/10/28 09:41:39;;;;;;;7.47;2.08;;;;;;;25.75;38.09;97795.75;4830979;29;20296;-73
2022/10/28 09:44:18;;;;;;;8.63;2.60;;;;;;;25.77;36.85;97803.44;4815364;29;20258;-73
2022/10/28 09:46:46;;;;;;;6.03;1.50;;;;;;;26.07;36.74;97790.75;4830012;29;20221;-73
2022/10/28 09:49:17;;;;;;;8.20;2.67;;;;;;;26.29;36.32;97794.91;4830435;29;20425;-73
2022/10/28 09:51:49;;;;;;;6.75;2.75;;;;;;;26.58;35.06;97793.16;4830954;29;20674;-73
2022/10/28 09:54:14;;;;;;;6.38;1.92;;;;;;;26.40;34.44;97787.22;4830387;29;20254;-73
2022/10/28 09:56:40;;;;;;;8.50;2.30;;;;;;;26.63;35.44;97786.81;4830834;29;20485;-73
2022/10/28 09:59:07;;;;;;;9.07;2.58;;;;;;;26.64;36.57;97783.81;4844383;29;20196;-73
2022/10/28 10:01:37;;;;;;;5.72;1.98;;;;;;;26.67;36.95;97791.16;4867340;29;20291;-73
2022/10/28 10:04:14;;;;;;;7.68;3.30;;;;;;;26.68;34.80;97794.59;4867378;29;20741;-73
2022/10/28 10:06:41;;;;;;;3.92;2.08;;;;;;;26.95;36.19;97790.44;4866797;29;20295;-73
2022/10/28 10:09:15;;;;;;;7.35;2.92;;;;;;;27.16;37.06;97790.31;4866748;29;20207;-73
2022/10/28 10:11:46;;;;;;;6.22;2.58;;;;;;;26.92;35.71;97796.44;4851506;29;20246;-73
2022/10/28 10:14:15;;;;;;;6.75;2.03;;;;;;;27.09;33.72;97798.91;4867146;28;20278;-73
2022/10/28 10:16:54;;;;;;;5.00;1.90;;;;;;;27.31;33.71;97804.09;4867012;29;20299;-73
2022/10/28 10:19:19;;;;;;;5.35;2.15;;;;;;;27.30;34.83;97791.84;4850726;29;20353;-74
2022/10/28 10:21:50;;;;;;;9.25;1.90;;;;;;;27.53;35.13;97792.09;4866906;29;20289;-74
2022/10/28 10:24:27;;;;;;;9.45;2.25;;;;;;;27.68;34.45;97796.72;4866451;29;20499;-73
2022/10/28 10:26:53;;;;;;;5.25;2.15;;;;;;;27.61;34.62;97799.97;4865946;29;20161;-74
2022/10/28 10:29:19;;;;;;;6.57;2.00;;;;;;;27.83;35.36;97805.91;4868375;29;20298;-73
2022/10/28 10:31:46;;;;;;;6.15;1.70;;;;;;;27.94;33.45;97795.50;4866768;29;20567;-73
2022/10/28 10:34:24;;;;;;;5.45;2.20;;;;;;;27.96;34.42;97794.00;4867082;29;20203;-73
2022/10/28 10:36:53;;;;;;;7.13;2.40;;;;;;;27.98;34.18;97797.16;4851050;29;20724;-73
2022/10/28 10:39:25;;;;;;;3.72;1.83;;;;;;;28.07;33.28;97794.31;4850603;29;20207;-73
2022/10/28 10:41:53;;;;;;;6.93;2.13;;;;;;;27.85;34.78;97787.59;4851190;29;20414;-73
2022/10/28 10:44:21;;;;;;;8.10;2.88;;;;;;;27.77;33.86;97791.19;4866791;28;20246;-73
2022/10/28 10:46:59;;;;;;;6.43;2.00;;;;;;;27.84;35.12;97792.16;4866424;29;20274;-73
2022/10/28 10:49:25;;;;;;;6.30;2.33;;;;;;;27.98;32.96;97791.00;4868066;29;20184;-73
2022/10/28 10:51:57;;;;;;;6.28;1.90;;;;;;;28.28;33.29;97787.91;4866676;29;20239;-74
2022/10/28 10:54:24;;;;;;;4.38;1.90;;;;;;;28.42;32.77;97788.25;4850646;29;20282;-74
2022/10/28 10:56:49;;;;;;;7.90;2.70;;;;;;;28.15;34.05;97796.00;4866820;29;20168;-73
2022/10/28 10:59:24;;;;;;;5.88;2.65;;;;;;;28.25;31.82;97786.69;4866375;29;20204;-73
2022/10/28 11:01:49;;;;;;;7.30;2.00;;;;;;;28.31;31.90;97785.31;4868507;29;20728;-73
2022/10/28 11:04:17;;;;;;;6.03;2.13;;;;;;;28.63;33.67;97779.16;4868359;29;20281;-73
2022/10/28 11:06:44;;;;;;;5.50;2.50;;;;;;;28.26;31.83;97784.78;4851281;29;20238;-74
2022/10/28 11:09:18;;;;;;;5.68;2.78;;;;;;;28.45;32.17;97782.19;4869677;29;20188;-73
2022/10/28 11:11:43;;;;;;;8.23;2.78;;;;;;;28.16;32.02;97784.19;4872039;29;20177;-74
2022/10/28 11:14:09;;;;;;;7.95;2.25;;;;;;;28.71;32.25;97778.22;4854444;28;20271;-74
2022/10/28 11:16:48;;;;;;;8.57;2.53;;;;;;;28.77;31.40;97774.09;4870188;29;20287;-74
2022/10/28 11:19:19;;;;;;;10.70;2.95;;;;;;;28.86;31.80;97771.25;4869453;29;20190;-74
2022/10/28 11:21:48;;;;;;;7.50;2.20;;;;;;;29.14;31.93;97763.00;4854371;29;20290;-74
2022/10/28 11:24:26;;;;;;;12.90;2.88;;;;;;;29.17;30.58;97766.91;4838416;29;20563;-73
2022/10/28 11:27:02;;;;;;;9.13;3.42;;;;;;;29.79;30.48;97764.28;4885580;28;20689;-74
2022/10/28 11:29:28;;;;;;;6.40;2.40;;;;;;;29.97;30.14;97759.22;4885451;28;20210;-73
2022/10/28 11:32:15;;;;;;;5.10;2.13;;;;;;;30.70;29.56;97767.25;4866750;29;20622;-74
2022/10/28 11:34:43;;;;;;;6.97;2.20;;;;;;;30.54;29.76;97756.69;4838045;29;20351;-74
2022/10/28 11:37:24;;;;;;;10.10;3.60;;;;;;;30.11;29.70;97748.72;4869276;29;20190;-73
2022/10/28 11:39:52;;;;;;;5.95;2.60;;;;;;;29.91;29.83;97745.31;4871272;29;20272;-74
2022/10/28 11:42:54;;;;;;;6.82;2.67;;;;;;;30.54;29.51;97741.31;4869539;29;20215;-73
2022/10/28 11:45:28;;;;;;;11.52;3.10;;;;;;;30.26;29.66;97760.44;4867093;28;20293;-74